createdAt,value
2019-05-09T00:01:34.903Z,7.90
2019-05-09T00:04:03.745Z,7.80
2019-05-09T00:06:33.951Z,7.80
2019-05-09T00:09:03.711Z,7.70
2019-05-09T00:11:33.873Z,7.70
2019-05-09T00:14:04.193Z,7.80
2019-05-09T00:16:33.515Z,7.80
2019-05-09T00:19:03.266Z,7.80
2019-05-09T00:21:39.112Z,7.80
2019-05-09T00:24:08.968Z,7.80
2019-05-09T00:26:56.146Z,7.80
2019-05-09T00:29:33.435Z,7.80
2019-05-09T00:32:23.886Z,7.90
2019-05-09T00:35:14.138Z,7.80
2019-05-09T00:37:54.004Z,7.80
2019-05-09T00:40:25.685Z,7.70
2019-05-09T00:42:58.162Z,7.70
2019-05-09T00:46:04.163Z,7.70
2019-05-09T00:48:53.377Z,7.70
2019-05-09T00:51:23.338Z,7.70
2019-05-09T00:53:53.660Z,7.80
2019-05-09T00:56:24.020Z,7.80
2019-05-09T00:58:53.735Z,7.80
2019-05-09T01:01:24.102Z,7.70
2019-05-09T01:03:53.687Z,7.70
2019-05-09T01:06:24.004Z,7.70
2019-05-09T01:08:53.775Z,7.70
2019-05-09T01:11:24.391Z,7.70
2019-05-09T01:13:54.620Z,7.70
2019-05-09T01:16:24.258Z,7.70
2019-05-09T01:18:54.757Z,7.70
2019-05-09T01:21:24.185Z,7.70
2019-05-09T01:23:53.969Z,7.70
2019-05-09T01:26:24.064Z,7.60
2019-05-09T01:28:54.064Z,7.60
2019-05-09T01:31:24.146Z,7.60
2019-05-09T01:33:54.897Z,7.50
2019-05-09T01:36:23.821Z,7.50
2019-05-09T01:38:53.988Z,7.40
2019-05-09T01:41:30.438Z,7.50
2019-05-09T01:43:53.728Z,7.50
2019-05-09T01:46:23.576Z,7.50
2019-05-09T01:48:53.723Z,7.50
2019-05-09T01:51:23.369Z,7.50
2019-05-09T01:53:55.871Z,7.50
2019-05-09T01:56:26.056Z,7.50
2019-05-09T01:58:54.778Z,7.50
2019-05-09T02:01:24.199Z,7.40
2019-05-09T02:03:54.775Z,7.40
2019-05-09T02:06:24.424Z,7.30
2019-05-09T02:08:54.465Z,7.20
2019-05-09T02:11:23.858Z,7.10
2019-05-09T02:13:53.483Z,7.20
2019-05-09T02:16:30.261Z,7.20
2019-05-09T02:19:14.295Z,7.20
2019-05-09T02:21:43.724Z,7.20
2019-05-09T02:24:14.136Z,7.10
2019-05-09T02:26:44.855Z,7.10
2019-05-09T02:29:13.982Z,7.10
2019-05-09T02:31:44.653Z,7.10
2019-05-09T02:34:14.791Z,7.00
2019-05-09T02:36:43.643Z,7.00
2019-05-09T02:39:14.111Z,6.90
2019-05-09T02:41:59.657Z,7.00
2019-05-09T02:44:13.247Z,6.90
2019-05-09T02:46:43.621Z,6.90
2019-05-09T02:49:12.420Z,6.90
2019-05-09T02:51:41.163Z,6.90
2019-05-09T02:54:10.216Z,6.90
2019-05-09T02:56:39.090Z,6.90
2019-05-09T03:02:31.239Z,6.90
2019-05-09T03:05:00.071Z,6.90
2019-05-09T03:07:48.632Z,6.90
2019-05-09T03:10:19.191Z,6.80
2019-05-09T03:12:50.144Z,6.80
2019-05-09T03:15:18.620Z,6.90
2019-05-09T03:17:49.517Z,6.90
2019-05-09T03:20:28.703Z,6.90
2019-05-09T03:22:58.309Z,6.90
2019-05-09T03:25:28.901Z,6.90
2019-05-09T03:28:01.697Z,7.00
2019-05-09T03:30:50.160Z,7.00
2019-05-09T03:33:20.194Z,7.10
2019-05-09T03:35:48.259Z,7.10
2019-05-09T03:38:17.948Z,7.20
2019-05-09T03:40:47.642Z,7.20
2019-05-09T03:43:18.331Z,7.20
2019-05-09T03:45:58.519Z,7.20
2019-05-09T03:48:55.109Z,7.30
2019-05-09T03:51:23.894Z,7.40
2019-05-09T03:53:52.630Z,7.50
2019-05-09T03:56:27.634Z,7.60
2019-05-09T03:58:57.875Z,7.80
2019-05-09T04:01:28.075Z,7.80
2019-05-09T04:03:58.446Z,7.90
2019-05-09T04:06:28.199Z,8.00
2019-05-09T04:08:58.493Z,8.20
2019-05-09T04:11:27.742Z,8.30
2019-05-09T04:13:58.895Z,8.40
2019-05-09T04:16:28.760Z,8.80
2019-05-09T04:18:58.144Z,9.90
2019-05-09T04:21:28.016Z,11.60
2019-05-09T04:23:58.443Z,13.20
2019-05-09T04:26:31.767Z,15.00
2019-05-09T04:29:00.602Z,15.90
2019-05-09T04:31:29.479Z,16.50
2019-05-09T04:33:58.138Z,17.20
2019-05-09T04:36:39.596Z,17.10
2019-05-09T04:39:12.669Z,17.90
2019-05-09T04:41:41.273Z,18.70
2019-05-09T04:44:17.207Z,18.50
2019-05-09T04:46:42.274Z,18.00
2019-05-09T04:49:11.043Z,18.30
2019-05-09T04:51:39.868Z,18.40
2019-05-09T04:54:08.622Z,19.10
2019-05-09T04:56:39.024Z,19.80
2019-05-09T04:59:07.779Z,19.60
2019-05-09T05:01:38.906Z,19.30
2019-05-09T05:04:08.530Z,19.30
2019-05-09T05:06:40.493Z,18.80
2019-05-09T05:09:09.233Z,19.60
2019-05-09T05:11:38.438Z,19.80
2019-05-09T05:14:09.270Z,19.70
2019-05-09T05:16:39.325Z,20.60
2019-05-09T05:19:08.255Z,21.00
2019-05-09T05:21:37.782Z,20.70
2019-05-09T05:24:11.089Z,20.50
2019-05-09T05:26:39.849Z,20.60
2019-05-09T05:29:13.493Z,20.80
2019-05-09T05:31:42.243Z,20.80
2019-05-09T05:34:12.644Z,21.10
2019-05-09T05:36:41.394Z,20.50
2019-05-09T05:39:10.166Z,21.80
2019-05-09T05:41:38.910Z,21.40
2019-05-09T05:44:08.555Z,21.30
2019-05-09T05:46:40.141Z,21.50
2019-05-09T05:49:08.642Z,22.00
2019-05-09T05:51:49.304Z,22.40
2019-05-09T05:54:20.029Z,22.50
2019-05-09T05:56:48.780Z,22.30
2019-05-09T05:59:20.973Z,23.00
2019-05-09T06:01:50.687Z,23.40
2019-05-09T06:04:18.844Z,22.50
2019-05-09T06:06:48.033Z,20.40
2019-05-09T06:09:19.031Z,18.50
2019-05-09T06:11:48.495Z,16.60
2019-05-09T06:14:18.437Z,15.80
2019-05-09T06:16:48.569Z,15.30
2019-05-09T06:19:19.212Z,15.10
2019-05-09T06:21:52.064Z,14.80
2019-05-09T06:24:18.830Z,14.60
2019-05-09T06:26:48.049Z,14.50
2019-05-09T06:29:17.827Z,14.50
2019-05-09T06:31:48.411Z,14.50
2019-05-09T06:34:19.271Z,14.60
2019-05-09T06:36:48.945Z,14.50
2019-05-09T06:39:20.502Z,14.50
2019-05-09T06:41:49.902Z,14.60
2019-05-09T06:44:32.602Z,14.50
2019-05-09T06:47:08.324Z,14.50
2019-05-09T06:49:38.010Z,14.50
2019-05-09T06:52:08.686Z,14.60
2019-05-09T06:54:41.321Z,14.50
2019-05-09T06:57:08.066Z,14.40
2019-05-09T06:59:38.157Z,14.60
2019-05-09T07:02:08.758Z,14.60
2019-05-09T07:04:42.093Z,14.50
2019-05-09T07:07:12.502Z,14.60
2019-05-09T07:09:42.892Z,14.70
2019-05-09T07:12:11.704Z,14.50
2019-05-09T07:14:41.893Z,14.40
2019-05-09T07:17:10.917Z,14.50
2019-05-09T07:19:43.552Z,14.60
2019-05-09T07:22:28.092Z,14.80
2019-05-09T07:25:05.951Z,14.80
2019-05-09T07:27:31.361Z,14.90
2019-05-09T07:30:01.837Z,14.80
2019-05-09T07:32:34.978Z,14.80
2019-05-09T07:35:08.735Z,14.80
2019-05-09T07:37:37.985Z,14.80
2019-05-09T07:40:08.414Z,14.80
2019-05-09T07:42:39.123Z,14.80
2019-05-09T07:45:08.850Z,14.90
2019-05-09T07:47:38.719Z,14.90
2019-05-09T07:50:08.710Z,15.00
2019-05-09T07:52:38.746Z,15.20
2019-05-09T07:55:08.878Z,15.20
2019-05-09T07:57:46.760Z,15.10
2019-05-09T08:00:09.760Z,14.80
2019-05-09T08:02:38.832Z,14.80
2019-05-09T08:05:08.722Z,14.90
2019-05-09T08:07:38.319Z,15.10
2019-05-09T08:10:10.898Z,15.10
2019-05-09T08:12:38.906Z,15.20
2019-05-09T08:15:15.716Z,15.10
2019-05-09T08:17:38.274Z,15.20
2019-05-09T08:20:08.126Z,15.30
2019-05-09T08:22:40.987Z,15.40
2019-05-09T08:25:08.236Z,15.30
2019-05-09T08:27:37.808Z,15.30
2019-05-09T08:30:08.053Z,15.50
2019-05-09T08:32:37.743Z,15.60
2019-05-09T08:35:08.240Z,15.70
2019-05-09T08:37:38.803Z,15.70
2019-05-09T08:40:08.344Z,15.90
2019-05-09T08:42:37.772Z,16.10
2019-05-09T08:45:17.374Z,16.50
2019-05-09T08:47:38.548Z,16.90
2019-05-09T08:50:17.597Z,18.90
2019-05-09T08:52:48.178Z,20.30
2019-05-09T08:55:18.013Z,21.00
2019-05-09T08:57:47.903Z,22.00
2019-05-09T09:00:18.911Z,21.30
2019-05-09T09:02:48.335Z,20.30
2019-05-09T09:05:18.683Z,19.70
2019-05-09T09:07:48.680Z,19.00
2019-05-09T09:10:30.058Z,18.10
2019-05-09T09:12:59.123Z,17.90
2019-05-09T09:15:50.287Z,17.70
2019-05-09T09:17:58.365Z,17.80
2019-05-09T09:20:28.803Z,18.10
2019-05-09T09:22:58.351Z,17.90
2019-05-09T09:25:28.735Z,17.70
2019-05-09T09:27:58.565Z,17.10
2019-05-09T09:30:29.287Z,17.00
2019-05-09T09:32:58.559Z,17.50
2019-05-09T09:35:28.555Z,17.50
2019-05-09T09:37:58.029Z,17.50
2019-05-09T09:40:27.959Z,17.80
2019-05-09T09:42:58.076Z,18.10
2019-05-09T09:45:29.029Z,18.70
2019-05-09T09:48:00.097Z,18.90
2019-05-09T09:50:28.958Z,19.00
2019-05-09T09:52:58.907Z,18.90
2019-05-09T09:55:28.056Z,18.80
2019-05-09T09:57:57.827Z,18.70
2019-05-09T10:00:48.240Z,18.40
2019-05-09T10:03:18.411Z,18.40
2019-05-09T10:05:48.455Z,18.40
2019-05-09T10:08:18.165Z,18.20
2019-05-09T10:10:48.441Z,18.20
2019-05-09T10:13:18.529Z,18.30
2019-05-09T10:15:51.579Z,18.90
2019-05-09T10:18:27.551Z,20.20
2019-05-09T10:20:58.534Z,20.80
2019-05-09T10:23:27.095Z,20.70
2019-05-09T10:25:57.988Z,20.20
2019-05-09T10:28:29.794Z,19.40
2019-05-09T10:30:57.706Z,18.80
2019-05-09T10:33:28.062Z,18.70
2019-05-09T10:36:03.272Z,19.00
2019-05-09T10:38:28.065Z,19.10
2019-05-09T10:41:01.064Z,19.20
2019-05-09T10:43:48.636Z,19.30
2019-05-09T10:46:52.145Z,18.90
2019-05-09T10:49:09.750Z,18.40
2019-05-09T10:51:38.511Z,18.00
2019-05-09T10:54:08.409Z,17.90
2019-05-09T10:56:38.435Z,17.70
2019-05-09T10:59:07.982Z,17.60
2019-05-09T11:01:38.198Z,17.80
2019-05-09T11:04:08.203Z,18.00
2019-05-09T11:06:38.393Z,18.40
2019-05-09T11:09:11.396Z,19.40
2019-05-09T11:11:40.355Z,19.50
2019-05-09T11:14:09.307Z,19.50
2019-05-09T11:16:45.909Z,19.10
2019-05-09T11:19:08.624Z,18.90
2019-05-09T11:21:39.113Z,18.60
2019-05-09T11:24:08.570Z,18.40
2019-05-09T11:26:39.496Z,18.40
2019-05-09T11:29:08.111Z,18.30
2019-05-09T11:31:38.399Z,18.30
2019-05-09T11:34:08.854Z,18.30
2019-05-09T11:36:38.196Z,18.30
2019-05-09T11:39:10.738Z,18.20
2019-05-09T11:41:38.907Z,18.30
2019-05-09T11:44:08.577Z,18.20
2019-05-09T11:46:38.388Z,18.00
2019-05-09T11:49:08.258Z,18.00
2019-05-09T11:51:37.508Z,18.00
2019-05-09T11:54:08.854Z,18.10
2019-05-09T11:56:38.447Z,18.30
2019-05-09T11:59:08.005Z,18.50
2019-05-09T12:01:39.486Z,18.60
2019-05-09T12:04:08.072Z,18.40
2019-05-09T12:06:38.764Z,18.60
2019-05-09T12:09:09.298Z,18.40
2019-05-09T12:11:43.481Z,18.60
2019-05-09T12:14:09.024Z,18.70
2019-05-09T12:16:38.164Z,18.80
2019-05-09T12:19:07.126Z,18.80
2019-05-09T12:21:42.502Z,18.60
2019-05-09T12:24:08.836Z,18.50
2019-05-09T12:26:39.058Z,18.20
2019-05-09T12:29:08.701Z,18.10
2019-05-09T12:31:38.729Z,18.20
2019-05-09T12:34:09.276Z,18.10
2019-05-09T12:36:39.922Z,18.40
2019-05-09T12:39:09.157Z,18.30
2019-05-09T12:41:38.532Z,18.20
2019-05-09T12:44:08.914Z,18.20
2019-05-09T12:46:39.414Z,18.10
2019-05-09T12:49:09.021Z,18.00
2019-05-09T12:51:38.058Z,17.80
2019-05-09T12:54:08.437Z,17.90
2019-05-09T12:56:38.533Z,17.80
2019-05-09T12:59:08.925Z,17.70
2019-05-09T13:01:40.712Z,17.70
2019-05-09T13:04:09.706Z,17.80
2019-05-09T13:06:38.779Z,17.90
2019-05-09T13:09:08.466Z,18.00
2019-05-09T13:11:39.028Z,18.00
2019-05-09T13:14:10.034Z,18.00
2019-05-09T13:16:48.502Z,18.10
2019-05-09T13:19:14.750Z,18.30
2019-05-09T13:21:43.489Z,18.40
2019-05-09T13:24:12.256Z,18.40
2019-05-09T13:26:42.190Z,18.60
2019-05-09T13:29:11.026Z,18.60
2019-05-09T13:31:39.954Z,18.70
2019-05-09T13:34:08.671Z,18.50
2019-05-09T13:36:37.436Z,18.40
2019-05-09T13:39:09.435Z,18.60
2019-05-09T13:41:39.484Z,18.50
2019-05-09T13:44:13.652Z,18.40
2019-05-09T13:46:40.677Z,18.20
2019-05-09T13:49:14.830Z,18.00
2019-05-09T13:51:49.872Z,17.90
2019-05-09T13:54:11.406Z,17.90
2019-05-09T13:56:40.243Z,17.90
2019-05-09T13:59:09.101Z,18.00
2019-05-09T14:01:38.118Z,18.10
2019-05-09T14:04:07.942Z,18.20
2019-05-09T14:06:38.752Z,18.30
2019-05-09T14:09:11.779Z,18.10
2019-05-09T14:11:40.990Z,18.20
2019-05-09T14:14:09.842Z,18.40
2019-05-09T14:16:39.164Z,18.40
2019-05-09T14:19:25.981Z,18.00
2019-05-09T14:21:38.502Z,17.90
2019-05-09T14:24:14.923Z,18.00
2019-05-09T14:26:39.398Z,18.00
2019-05-09T14:29:12.079Z,18.00
2019-05-09T14:31:38.914Z,18.10
2019-05-09T14:34:08.838Z,18.10
2019-05-09T14:36:39.131Z,18.20
2019-05-09T14:39:09.355Z,18.40
2019-05-09T14:41:39.132Z,18.40
2019-05-09T14:44:09.325Z,18.30
2019-05-09T14:46:39.140Z,18.20
2019-05-09T14:49:07.938Z,18.20
2019-05-09T14:51:38.349Z,18.10
2019-05-09T14:54:08.305Z,18.10
2019-05-09T14:56:41.963Z,18.10
2019-05-09T14:59:09.735Z,18.30
2019-05-09T15:01:43.272Z,18.40
2019-05-09T15:04:09.145Z,18.50
2019-05-09T15:06:38.142Z,18.50
2019-05-09T15:09:08.571Z,18.50
2019-05-09T15:11:39.457Z,18.50
2019-05-09T15:14:08.443Z,18.40
2019-05-09T15:16:39.158Z,18.40
2019-05-09T15:19:08.528Z,18.40
2019-05-09T15:21:38.998Z,18.40
2019-05-09T15:24:09.214Z,18.30
2019-05-09T15:26:38.329Z,18.30
2019-05-09T15:29:07.937Z,18.40
2019-05-09T15:31:39.157Z,18.40
2019-05-09T15:34:09.675Z,18.40
2019-05-09T15:36:38.983Z,18.40
2019-05-09T15:39:09.253Z,18.30
2019-05-09T15:41:38.663Z,18.20
2019-05-09T15:44:08.792Z,18.20
2019-05-09T15:46:45.440Z,18.20
2019-05-09T15:49:18.175Z,18.30
2019-05-09T15:51:47.853Z,18.10
2019-05-09T15:54:17.887Z,18.00
2019-05-09T15:56:48.372Z,18.10
2019-05-09T15:59:18.425Z,18.10
2019-05-09T16:01:49.238Z,18.20
2019-05-09T16:04:17.870Z,18.30
2019-05-09T16:06:50.140Z,18.20
2019-05-09T16:09:17.979Z,18.20
2019-05-09T16:11:48.354Z,18.10
2019-05-09T16:14:38.225Z,18.00
2019-05-09T16:17:07.888Z,17.90
2019-05-09T16:19:37.822Z,17.80
2019-05-09T16:22:08.247Z,17.70
2019-05-09T16:24:38.070Z,17.70
2019-05-09T16:27:08.507Z,17.70
2019-05-09T16:29:38.310Z,17.80
2019-05-09T16:32:08.609Z,17.80
2019-05-09T16:34:38.703Z,17.70
2019-05-09T16:37:07.719Z,17.60
2019-05-09T16:39:38.390Z,17.60
2019-05-09T16:42:08.684Z,17.60
2019-05-09T16:44:41.609Z,17.40
2019-05-09T16:47:09.557Z,17.40
2019-05-09T16:49:38.806Z,17.40
2019-05-09T16:52:27.204Z,17.30
2019-05-09T16:54:58.534Z,17.30
2019-05-09T16:57:27.627Z,17.30
2019-05-09T16:59:56.540Z,17.30
2019-05-09T17:02:28.673Z,17.30
2019-05-09T17:04:57.699Z,17.30
2019-05-09T17:07:27.829Z,17.20
2019-05-09T17:09:57.780Z,17.20
2019-05-09T17:12:26.737Z,17.20
2019-05-09T17:14:59.484Z,17.20
2019-05-09T17:17:27.836Z,17.10
2019-05-09T17:19:57.268Z,17.20
2019-05-09T17:22:39.799Z,17.20
2019-05-09T17:25:09.227Z,17.20
2019-05-09T17:27:38.720Z,17.10
2019-05-09T17:30:08.619Z,17.20
2019-05-09T17:32:38.070Z,17.20
2019-05-09T17:35:07.850Z,17.20
2019-05-09T17:37:38.436Z,17.20
2019-05-09T17:40:07.947Z,17.10
2019-05-09T17:42:38.159Z,17.10
2019-05-09T17:45:08.445Z,17.10
2019-05-09T17:47:37.763Z,17.00
2019-05-09T17:50:07.825Z,17.00
2019-05-09T17:52:36.662Z,16.90
2019-05-09T17:55:07.387Z,17.00
2019-05-09T17:57:38.610Z,17.00
2019-05-09T18:00:10.786Z,17.00
2019-05-09T18:02:39.542Z,17.00
2019-05-09T18:05:08.419Z,17.00
2019-05-09T18:07:37.752Z,17.00
2019-05-09T18:10:09.111Z,16.90
2019-05-09T18:12:38.451Z,16.90
2019-05-09T18:15:08.724Z,16.90
2019-05-09T18:17:38.257Z,16.90
2019-05-09T18:20:08.207Z,16.80
2019-05-09T18:22:37.822Z,16.80
2019-05-09T18:25:08.324Z,16.80
2019-05-09T18:27:38.312Z,16.80
2019-05-09T18:30:07.237Z,16.80
2019-05-09T18:32:40.274Z,16.80
2019-05-09T18:35:16.879Z,16.70
2019-05-09T18:37:47.934Z,16.70
2019-05-09T18:40:19.444Z,16.70
2019-05-09T18:43:07.742Z,16.70
2019-05-09T18:45:37.533Z,16.60
2019-05-09T18:48:05.675Z,16.60
2019-05-09T18:50:34.470Z,16.60
2019-05-09T18:53:03.301Z,16.60
2019-05-09T18:55:31.986Z,16.60
2019-05-09T18:58:00.799Z,16.50
2019-05-09T19:00:30.609Z,16.50
2019-05-09T19:02:58.548Z,16.50
2019-05-09T19:05:27.535Z,16.40
2019-05-09T19:07:56.458Z,16.40
2019-05-09T19:10:26.917Z,16.40
2019-05-09T19:12:55.663Z,16.30
2019-05-09T19:15:43.147Z,16.30
2019-05-09T19:18:16.008Z,16.20
2019-05-09T19:20:52.362Z,16.20
2019-05-09T19:23:21.134Z,16.10
2019-05-09T19:25:49.999Z,16.10
2019-05-09T19:28:18.754Z,16.20
2019-05-09T19:30:47.556Z,16.20
2019-05-09T19:33:16.278Z,16.20
2019-05-09T19:35:45.125Z,16.10
2019-05-09T19:38:13.820Z,16.10
2019-05-09T19:40:44.434Z,16.00
2019-05-09T19:43:13.173Z,16.00
2019-05-09T19:45:42.075Z,15.90
2019-05-09T19:48:10.880Z,15.90
2019-05-09T19:50:39.683Z,15.90
2019-05-09T19:53:10.253Z,15.90
2019-05-09T19:55:38.800Z,15.90
2019-05-09T19:58:07.651Z,15.80
2019-05-09T20:00:36.470Z,15.90
2019-05-09T20:03:05.242Z,15.80
2019-05-09T20:05:34.100Z,15.80
2019-05-09T20:08:02.860Z,15.80
2019-05-09T20:10:49.538Z,15.80
2019-05-09T20:13:20.030Z,15.80
2019-05-09T20:15:48.864Z,15.70
2019-05-09T20:18:17.614Z,15.70
2019-05-09T20:20:46.378Z,15.70
2019-05-09T20:23:15.161Z,15.70
2019-05-09T20:25:45.836Z,15.70
2019-05-09T20:28:14.328Z,15.60
2019-05-09T20:30:43.075Z,15.60
2019-05-09T20:33:11.907Z,15.60
2019-05-09T20:35:40.608Z,15.60
2019-05-09T20:38:09.671Z,15.50
2019-05-09T20:40:39.200Z,15.50
2019-05-09T20:43:08.214Z,15.50
2019-05-09T20:45:37.243Z,15.50
2019-05-09T20:48:06.261Z,15.50
2019-05-09T20:50:35.190Z,15.50
2019-05-09T20:53:09.533Z,15.40
2019-05-09T20:55:34.885Z,15.40
2019-05-09T20:58:03.977Z,15.30
2019-05-09T21:03:40.623Z,15.30
2019-05-09T21:06:09.565Z,15.10
2019-05-09T21:08:38.478Z,15.10
2019-05-09T21:11:10.399Z,15.00
2019-05-09T21:13:48.655Z,15.00
2019-05-09T21:16:13.065Z,14.90
2019-05-09T21:18:43.870Z,14.90
2019-05-09T21:21:12.801Z,14.90
2019-05-09T21:23:41.798Z,14.80
2019-05-09T21:26:10.757Z,14.80
2019-05-09T21:28:39.659Z,14.90
2019-05-09T21:31:08.597Z,14.80
2019-05-09T21:33:37.623Z,14.70
2019-05-09T21:36:08.123Z,14.60
2019-05-09T21:38:38.311Z,14.60
2019-05-09T21:41:07.053Z,14.60
2019-05-09T21:43:36.969Z,14.30
2019-05-09T21:46:04.815Z,14.30
2019-05-09T21:48:33.570Z,14.30
2019-05-09T21:51:02.320Z,14.30
2019-05-09T21:53:40.416Z,14.30
2019-05-09T21:56:01.604Z,14.30
2019-05-09T21:58:30.356Z,14.10
2019-05-09T22:01:00.064Z,14.10
2019-05-09T22:03:29.015Z,14.00
2019-05-09T22:05:57.884Z,14.10
2019-05-09T22:08:26.771Z,14.10
2019-05-09T22:10:55.520Z,14.10
2019-05-09T22:13:24.270Z,14.10
2019-05-09T22:15:53.111Z,14.00
2019-05-09T22:18:21.984Z,14.00
2019-05-09T22:20:50.776Z,13.90
2019-05-09T22:23:19.535Z,13.90
2019-05-09T22:25:48.285Z,13.90
2019-05-09T22:28:17.033Z,13.80
2019-05-09T22:30:45.782Z,13.70
2019-05-09T22:33:14.625Z,13.70
2019-05-09T22:35:43.378Z,13.60
2019-05-09T22:38:12.288Z,13.50
2019-05-09T22:40:41.072Z,13.40
2019-05-09T22:43:09.950Z,13.30
2019-05-09T22:45:38.647Z,13.40
2019-05-09T22:48:07.405Z,13.50
2019-05-09T22:50:36.149Z,13.60
2019-05-09T22:53:05.001Z,13.40
2019-05-09T22:55:33.675Z,13.40
2019-05-09T22:58:04.142Z,13.40
2019-05-09T23:00:32.958Z,13.40
2019-05-09T23:03:01.700Z,13.40
2019-05-09T23:05:30.454Z,13.40
2019-05-09T23:07:59.276Z,13.30
2019-05-09T23:10:28.097Z,13.30
2019-05-09T23:12:56.773Z,13.30
2019-05-09T23:15:25.695Z,13.40
2019-05-09T23:17:54.427Z,13.30
2019-05-09T23:20:44.383Z,13.30
2019-05-09T23:23:24.879Z,13.30
2019-05-09T23:25:55.258Z,13.30
2019-05-09T23:28:24.600Z,13.30
2019-05-09T23:30:54.989Z,13.30
2019-05-09T23:33:25.333Z,13.30
2019-05-09T23:35:54.080Z,13.30
2019-05-09T23:38:22.922Z,13.30
2019-05-09T23:40:51.672Z,13.20
2019-05-09T23:43:20.400Z,13.10
2019-05-09T23:45:49.142Z,13.10
2019-05-09T23:48:17.990Z,13.10
2019-05-09T23:50:48.640Z,13.10
2019-05-09T23:53:21.092Z,13.00
2019-05-09T23:56:07.793Z,12.90
2019-05-09T23:58:55.752Z,12.80
